createdAt,value
2018-02-05T00:00:21.681Z,1008.24
2018-02-05T00:01:21.701Z,1008.23
2018-02-05T00:02:21.720Z,1008.21
2018-02-05T00:03:21.723Z,1008.23
2018-02-05T00:04:21.730Z,1008.26
2018-02-05T00:05:21.756Z,1008.26
2018-02-05T00:06:21.764Z,1008.23
2018-02-05T00:07:21.774Z,1008.26
2018-02-05T00:08:21.801Z,1008.28
2018-02-05T00:09:21.802Z,1008.29
2018-02-05T00:10:21.815Z,1008.30
2018-02-05T00:11:21.832Z,1008.28
2018-02-05T00:12:21.841Z,1008.27
2018-02-05T00:13:21.852Z,1008.30
2018-02-05T00:14:21.866Z,1008.29
2018-02-05T00:15:21.873Z,1008.27
2018-02-05T00:16:21.891Z,1008.30
2018-02-05T00:17:21.900Z,1008.27
2018-02-05T00:18:21.917Z,1008.29
2018-02-05T00:19:21.936Z,1008.30
2018-02-05T00:20:21.943Z,1008.27
2018-02-05T00:21:21.954Z,1008.29
2018-02-05T00:22:21.974Z,1008.29
2018-02-05T00:23:21.982Z,1008.31
2018-02-05T00:24:21.997Z,1008.31
2018-02-05T00:25:22.009Z,1008.34
2018-02-05T00:26:22.032Z,1008.30
2018-02-05T00:27:22.037Z,1008.32
2018-02-05T00:28:22.047Z,1008.33
2018-02-05T00:29:22.062Z,1008.30
2018-02-05T00:30:22.076Z,1008.32
2018-02-05T00:31:22.082Z,1008.32
2018-02-05T00:32:22.100Z,1008.32
2018-02-05T00:33:22.113Z,1008.28
2018-02-05T00:34:22.124Z,1008.31
2018-02-05T00:35:22.136Z,1008.31
2018-02-05T00:36:22.151Z,1008.33
2018-02-05T00:37:22.160Z,1008.30
2018-02-05T00:38:22.186Z,1008.31
2018-02-05T00:39:22.189Z,1008.32
2018-02-05T00:40:22.201Z,1008.33
2018-02-05T00:41:22.214Z,1008.29
2018-02-05T00:42:22.226Z,1008.27
2018-02-05T00:43:22.254Z,1008.33
2018-02-05T00:44:22.258Z,1008.29
2018-02-05T00:45:22.267Z,1008.32
2018-02-05T00:46:22.280Z,1008.35
2018-02-05T00:47:22.291Z,1008.32
2018-02-05T00:48:22.304Z,1008.33
2018-02-05T00:49:22.312Z,1008.29
2018-02-05T00:50:22.326Z,1008.26
2018-02-05T00:51:22.342Z,1008.31
2018-02-05T00:52:22.354Z,1008.30
2018-02-05T00:53:22.370Z,1008.35
2018-02-05T00:54:22.383Z,1008.30
2018-02-05T00:55:22.398Z,1008.33
2018-02-05T00:56:22.414Z,1008.35
2018-02-05T00:57:22.417Z,1008.35
2018-02-05T00:58:22.431Z,1008.34
2018-02-05T00:59:22.441Z,1008.37
2018-02-05T01:00:22.457Z,1008.37
2018-02-05T01:01:22.470Z,1008.36
2018-02-05T01:02:22.484Z,1008.38
2018-02-05T01:03:22.501Z,1008.34
2018-02-05T01:04:22.509Z,1008.35
2018-02-05T01:05:22.524Z,1008.33
2018-02-05T01:06:22.537Z,1008.30
2018-02-05T01:07:22.547Z,1008.35
2018-02-05T01:08:22.557Z,1008.29
2018-02-05T01:09:22.567Z,1008.30
2018-02-05T01:10:22.591Z,1008.32
2018-02-05T01:11:22.597Z,1008.32
2018-02-05T01:12:22.616Z,1008.33
2018-02-05T01:13:22.621Z,1008.35
2018-02-05T01:14:22.667Z,1008.41
2018-02-05T01:15:22.671Z,1008.39
2018-02-05T01:16:22.664Z,1008.34
2018-02-05T01:17:22.666Z,1008.33
2018-02-05T01:18:22.682Z,1008.31
2018-02-05T01:19:22.694Z,1008.35
2018-02-05T01:20:22.714Z,1008.38
2018-02-05T01:21:22.724Z,1008.39
2018-02-05T01:22:22.736Z,1008.42
2018-02-05T01:23:22.748Z,1008.45
2018-02-05T01:24:22.758Z,1008.48
2018-02-05T01:25:22.766Z,1008.44
2018-02-05T01:26:22.800Z,1008.45
2018-02-05T01:27:22.836Z,1008.42
2018-02-05T01:28:22.811Z,1008.40
2018-02-05T01:29:22.822Z,1008.37
2018-02-05T01:30:22.840Z,1008.42
2018-02-05T01:31:22.849Z,1008.42
2018-02-05T01:32:22.870Z,1008.41
2018-02-05T01:33:22.879Z,1008.44
2018-02-05T01:34:22.885Z,1008.46
2018-02-05T01:35:22.894Z,1008.49
2018-02-05T01:36:22.909Z,1008.52
2018-02-05T01:37:22.919Z,1008.51
2018-02-05T01:38:22.938Z,1008.54
2018-02-05T01:39:22.955Z,1008.55
2018-02-05T01:40:22.962Z,1008.51
2018-02-05T01:41:22.972Z,1008.51
2018-02-05T01:42:22.990Z,1008.54
2018-02-05T01:43:22.999Z,1008.53
2018-02-05T01:44:23.014Z,1008.58
2018-02-05T01:45:23.042Z,1008.55
2018-02-05T01:46:23.046Z,1008.53
2018-02-05T01:47:23.054Z,1008.55
2018-02-05T01:48:23.070Z,1008.58
2018-02-05T01:49:23.077Z,1008.59
2018-02-05T01:50:23.091Z,1008.59
2018-02-05T01:51:23.103Z,1008.56
2018-02-05T01:52:23.113Z,1008.55
2018-02-05T01:53:23.127Z,1008.54
2018-02-05T01:54:23.137Z,1008.51
2018-02-05T01:55:23.148Z,1008.50
2018-02-05T01:56:23.170Z,1008.53
2018-02-05T01:57:23.181Z,1008.52
2018-02-05T01:58:23.192Z,1008.55
2018-02-05T01:59:23.210Z,1008.54
2018-02-05T02:00:23.220Z,1008.57
2018-02-05T02:01:23.233Z,1008.53
2018-02-05T02:02:23.269Z,1008.56
2018-02-05T02:03:23.261Z,1008.52
2018-02-05T02:04:23.275Z,1008.52
2018-02-05T02:05:23.282Z,1008.48
2018-02-05T02:06:23.296Z,1008.51
2018-02-05T02:07:23.314Z,1008.51
2018-02-05T02:08:23.321Z,1008.51
2018-02-05T02:09:23.343Z,1008.52
2018-02-05T02:10:23.347Z,1008.55
2018-02-05T02:11:23.359Z,1008.54
2018-02-05T02:12:23.371Z,1008.55
2018-02-05T02:13:23.388Z,1008.56
2018-02-05T02:14:23.444Z,1008.56
2018-02-05T02:15:23.414Z,1008.61
2018-02-05T02:16:23.435Z,1008.59
2018-02-05T02:17:23.451Z,1008.59
2018-02-05T02:18:23.449Z,1008.54
2018-02-05T02:19:23.466Z,1008.55
2018-02-05T02:20:23.496Z,1008.61
2018-02-05T02:21:23.488Z,1008.59
2018-02-05T02:22:23.503Z,1008.59
2018-02-05T02:23:23.513Z,1008.59
2018-02-05T02:24:23.531Z,1008.59
2018-02-05T02:25:23.550Z,1008.57
2018-02-05T02:26:23.551Z,1008.60
2018-02-05T02:27:23.564Z,1008.58
2018-02-05T02:28:23.611Z,1008.58
2018-02-05T02:29:23.605Z,1008.59
2018-02-05T02:30:23.607Z,1008.64
2018-02-05T02:31:23.622Z,1008.62
2018-02-05T02:32:23.694Z,1008.58
2018-02-05T02:33:23.641Z,1008.59
2018-02-05T02:34:23.679Z,1008.58
2018-02-05T02:35:23.670Z,1008.60
2018-02-05T02:36:23.681Z,1008.58
2018-02-05T02:37:23.700Z,1008.60
2018-02-05T02:38:23.704Z,1008.61
2018-02-05T02:39:23.721Z,1008.60
2018-02-05T02:40:23.743Z,1008.60
2018-02-05T02:41:23.744Z,1008.61
2018-02-05T02:42:23.759Z,1008.56
2018-02-05T02:43:23.771Z,1008.63
2018-02-05T02:44:23.786Z,1008.64
2018-02-05T02:45:23.799Z,1008.63
2018-02-05T02:46:23.807Z,1008.59
2018-02-05T02:47:23.821Z,1008.58
2018-02-05T02:48:23.831Z,1008.60
2018-02-05T02:49:23.845Z,1008.58
2018-02-05T02:50:23.857Z,1008.60
2018-02-05T02:51:23.869Z,1008.59
2018-02-05T02:52:23.887Z,1008.62
2018-02-05T02:53:23.900Z,1008.63
2018-02-05T02:54:23.909Z,1008.66
2018-02-05T02:55:23.922Z,1008.69
2018-02-05T02:56:23.951Z,1008.67
2018-02-05T02:57:23.947Z,1008.66
2018-02-05T02:58:23.954Z,1008.63
2018-02-05T02:59:24.021Z,1008.67
2018-02-05T03:00:23.986Z,1008.69
2018-02-05T03:01:23.993Z,1008.70
2018-02-05T03:02:24.032Z,1008.72
2018-02-05T03:03:24.022Z,1008.69
2018-02-05T03:04:24.035Z,1008.72
2018-02-05T03:05:24.063Z,1008.71
2018-02-05T03:06:24.106Z,1008.72
2018-02-05T03:07:24.076Z,1008.71
2018-02-05T03:08:24.090Z,1008.74
2018-02-05T03:09:24.098Z,1008.78
2018-02-05T03:10:24.135Z,1008.75
2018-02-05T03:11:24.122Z,1008.76
2018-02-05T03:12:24.134Z,1008.78
2018-02-05T03:13:24.153Z,1008.70
2018-02-05T03:14:24.163Z,1008.76
2018-02-05T03:15:24.174Z,1008.71
2018-02-05T03:16:24.185Z,1008.67
2018-02-05T03:17:24.202Z,1008.71
2018-02-05T03:18:24.213Z,1008.69
2018-02-05T03:19:24.222Z,1008.67
2018-02-05T03:20:24.239Z,1008.72
2018-02-05T03:21:24.246Z,1008.70
2018-02-05T03:22:24.259Z,1008.76
2018-02-05T03:23:24.274Z,1008.72
2018-02-05T03:24:24.288Z,1008.76
2018-02-05T03:25:24.302Z,1008.72
2018-02-05T03:26:24.312Z,1008.73
2018-02-05T03:27:24.333Z,1008.78
2018-02-05T03:28:24.340Z,1008.78
2018-02-05T03:29:24.351Z,1008.78
2018-02-05T03:30:24.362Z,1008.80
2018-02-05T03:31:24.375Z,1008.81
2018-02-05T03:32:24.387Z,1008.80
2018-02-05T03:33:24.399Z,1008.80
2018-02-05T03:34:24.418Z,1008.81
2018-02-05T03:35:24.426Z,1008.81
2018-02-05T03:36:24.438Z,1008.77
2018-02-05T03:37:24.454Z,1008.76
2018-02-05T03:38:24.466Z,1008.79
2018-02-05T03:39:24.479Z,1008.79
2018-02-05T03:40:24.492Z,1008.81
2018-02-05T03:41:24.501Z,1008.80
2018-02-05T03:42:24.512Z,1008.84
2018-02-05T03:43:24.526Z,1008.83
2018-02-05T03:44:24.552Z,1008.85
2018-02-05T03:45:24.563Z,1008.87
2018-02-05T03:46:24.565Z,1008.87
2018-02-05T03:47:24.573Z,1008.91
2018-02-05T03:48:24.590Z,1008.91
2018-02-05T03:49:24.599Z,1008.86
2018-02-05T03:50:24.616Z,1008.83
2018-02-05T03:51:24.630Z,1008.82
2018-02-05T03:52:24.645Z,1008.87
2018-02-05T03:53:24.653Z,1008.94
2018-02-05T03:54:24.666Z,1008.93
2018-02-05T03:55:24.689Z,1008.98
2018-02-05T03:56:24.690Z,1009.01
2018-02-05T03:57:24.706Z,1008.99
2018-02-05T03:58:24.714Z,1008.95
2018-02-05T03:59:24.731Z,1008.99
2018-02-05T04:00:24.742Z,1008.95
2018-02-05T04:01:24.754Z,1008.96
2018-02-05T04:02:24.842Z,1008.97
2018-02-05T04:03:24.775Z,1008.94
2018-02-05T04:04:24.793Z,1008.94
2018-02-05T04:05:24.802Z,1008.93
2018-02-05T04:06:24.886Z,1008.95
2018-02-05T04:07:24.828Z,1008.87
2018-02-05T04:08:24.844Z,1008.89
2018-02-05T04:09:24.854Z,1008.88
2018-02-05T04:10:24.869Z,1008.92
2018-02-05T04:11:24.882Z,1008.91
2018-02-05T04:12:24.896Z,1008.86
2018-02-05T04:13:24.907Z,1008.88
2018-02-05T04:14:24.914Z,1008.90
2018-02-05T04:15:24.925Z,1008.90
2018-02-05T04:16:24.938Z,1008.92
2018-02-05T04:17:24.955Z,1008.96
2018-02-05T04:18:24.978Z,1008.93
2018-02-05T04:19:24.985Z,1008.94
2018-02-05T04:20:25.007Z,1008.92
2018-02-05T04:21:25.006Z,1008.95
2018-02-05T04:22:25.032Z,1008.94
2018-02-05T04:23:25.035Z,1008.92
2018-02-05T04:24:25.043Z,1008.88
2018-02-05T04:25:25.055Z,1008.95
2018-02-05T04:26:25.067Z,1008.90
2018-02-05T04:27:25.083Z,1008.88
2018-02-05T04:28:25.099Z,1008.93
2018-02-05T04:29:25.106Z,1008.92
2018-02-05T04:30:25.130Z,1008.91
2018-02-05T04:31:25.132Z,1008.88
2018-02-05T04:32:25.167Z,1008.91
2018-02-05T04:33:25.154Z,1008.88
2018-02-05T04:34:25.166Z,1008.89
2018-02-05T04:35:25.181Z,1008.94
2018-02-05T04:36:25.200Z,1008.89
2018-02-05T04:37:25.210Z,1008.93
2018-02-05T04:38:25.215Z,1008.90
2018-02-05T04:39:25.254Z,1008.91
2018-02-05T04:40:25.247Z,1008.93
2018-02-05T04:41:25.261Z,1008.94
2018-02-05T04:42:25.271Z,1008.96
2018-02-05T04:43:25.284Z,1009.00
2018-02-05T04:44:25.303Z,1009.02
2018-02-05T04:45:25.334Z,1009.01
2018-02-05T04:46:25.322Z,1008.99
2018-02-05T04:47:25.337Z,1009.00
2018-02-05T04:48:25.344Z,1009.03
2018-02-05T04:49:25.356Z,1008.99
2018-02-05T04:50:25.370Z,1009.04
2018-02-05T04:51:25.386Z,1009.02
2018-02-05T04:52:25.395Z,1009.06
2018-02-05T04:53:25.408Z,1009.05
2018-02-05T04:54:25.426Z,1009.03
2018-02-05T04:55:25.433Z,1009.07
2018-02-05T04:56:25.452Z,1009.01
2018-02-05T04:57:25.480Z,1009.03
2018-02-05T04:58:25.477Z,1009.04
2018-02-05T04:59:25.484Z,1009.01
2018-02-05T05:00:25.496Z,1008.98
2018-02-05T05:01:25.509Z,1008.99
2018-02-05T05:02:25.529Z,1008.99
2018-02-05T05:03:25.530Z,1008.99
2018-02-05T05:04:25.544Z,1009.02
2018-02-05T05:05:25.561Z,1008.98
2018-02-05T05:06:25.570Z,1009.00
2018-02-05T05:07:25.597Z,1009.07
2018-02-05T05:08:25.596Z,1009.05
2018-02-05T05:09:25.609Z,1009.01
2018-02-05T05:10:25.624Z,1009.00
2018-02-05T05:11:25.631Z,1009.00
2018-02-05T05:12:25.642Z,1009.03
2018-02-05T05:13:25.657Z,1009.00
2018-02-05T05:14:25.673Z,1009.03
2018-02-05T05:15:25.683Z,1009.03
2018-02-05T05:16:25.696Z,1009.04
2018-02-05T05:17:25.706Z,1008.97
2018-02-05T05:18:25.724Z,1009.03
2018-02-05T05:19:25.736Z,1008.97
2018-02-05T05:20:25.745Z,1009.01
2018-02-05T05:21:25.759Z,1008.99
2018-02-05T05:22:25.817Z,1008.99
2018-02-05T05:23:25.781Z,1008.99
2018-02-05T05:24:25.796Z,1008.99
2018-02-05T05:25:25.809Z,1008.93
2018-02-05T05:26:25.818Z,1008.92
2018-02-05T05:27:25.835Z,1008.90
2018-02-05T05:28:25.854Z,1008.93
2018-02-05T05:29:25.861Z,1008.97
2018-02-05T05:30:25.878Z,1008.93
2018-02-05T05:31:25.884Z,1008.93
2018-02-05T05:32:25.902Z,1008.90
2018-02-05T05:33:25.908Z,1008.95
2018-02-05T05:34:25.923Z,1008.97
2018-02-05T05:35:25.936Z,1008.93
2018-02-05T05:36:25.950Z,1008.98
2018-02-05T05:37:25.958Z,1008.96
2018-02-05T05:38:25.975Z,1008.94
2018-02-05T05:39:25.983Z,1008.93
2018-02-05T05:40:26.003Z,1008.96
2018-02-05T05:41:26.014Z,1008.97
2018-02-05T05:42:26.022Z,1008.96
2018-02-05T05:43:26.032Z,1008.98
2018-02-05T05:44:26.045Z,1008.99
2018-02-05T05:45:26.058Z,1009.04
2018-02-05T05:46:26.072Z,1009.00
2018-02-05T05:47:26.090Z,1008.99
2018-02-05T05:48:26.096Z,1009.00
2018-02-05T05:49:26.107Z,1008.96
2018-02-05T05:50:26.121Z,1008.98
2018-02-05T05:51:26.136Z,1009.00
2018-02-05T05:52:26.148Z,1008.98
2018-02-05T05:53:26.161Z,1008.96
2018-02-05T05:54:26.176Z,1008.96
2018-02-05T05:55:26.185Z,1008.97
2018-02-05T05:56:26.194Z,1009.02
2018-02-05T05:57:26.216Z,1008.99
2018-02-05T05:58:26.225Z,1008.97
2018-02-05T05:59:26.231Z,1009.02
2018-02-05T06:00:26.302Z,1009.03
2018-02-05T06:01:26.255Z,1009.10
2018-02-05T06:02:26.265Z,1009.06
2018-02-05T06:03:26.288Z,1009.06
2018-02-05T06:04:26.297Z,1009.09
2018-02-05T06:05:26.312Z,1009.04
2018-02-05T06:06:26.322Z,1009.08
2018-02-05T06:07:26.338Z,1009.09
2018-02-05T06:08:26.383Z,1009.11
2018-02-05T06:09:26.359Z,1009.10
2018-02-05T06:10:26.370Z,1009.15
2018-02-05T06:11:26.387Z,1009.13
2018-02-05T06:12:26.397Z,1009.14
2018-02-05T06:13:26.417Z,1009.17
2018-02-05T06:14:26.425Z,1009.19
2018-02-05T06:15:26.431Z,1009.18
2018-02-05T06:16:26.450Z,1009.18
2018-02-05T06:17:26.459Z,1009.16
2018-02-05T06:18:26.489Z,1009.16
2018-02-05T06:19:26.488Z,1009.20
2018-02-05T06:20:26.497Z,1009.17
2018-02-05T06:21:26.512Z,1009.18
2018-02-05T06:22:26.526Z,1009.20
2018-02-05T06:23:26.539Z,1009.22
2018-02-05T06:24:26.546Z,1009.20
2018-02-05T06:25:26.565Z,1009.27
2018-02-05T06:26:26.571Z,1009.19
2018-02-05T06:27:26.591Z,1009.20
2018-02-05T06:28:26.596Z,1009.27
2018-02-05T06:29:26.608Z,1009.21
2018-02-05T06:30:26.625Z,1009.22
2018-02-05T06:31:26.635Z,1009.25
2018-02-05T06:32:26.695Z,1009.24
2018-02-05T06:33:26.662Z,1009.28
2018-02-05T06:34:26.671Z,1009.28
2018-02-05T06:35:26.678Z,1009.31
2018-02-05T06:36:26.703Z,1009.27
2018-02-05T06:37:26.709Z,1009.33
2018-02-05T06:38:26.730Z,1009.28
2018-02-05T06:39:26.744Z,1009.30
2018-02-05T06:40:26.750Z,1009.34
2018-02-05T06:41:26.761Z,1009.35
2018-02-05T06:42:26.783Z,1009.40
2018-02-05T06:43:26.815Z,1009.39
2018-02-05T06:44:26.806Z,1009.39
2018-02-05T06:45:26.811Z,1009.35
2018-02-05T06:46:26.832Z,1009.37
2018-02-05T06:47:26.840Z,1009.39
2018-02-05T06:48:26.855Z,1009.39
2018-02-05T06:49:26.860Z,1009.41
2018-02-05T06:50:26.875Z,1009.43
2018-02-05T06:51:26.887Z,1009.42
2018-02-05T06:52:26.898Z,1009.42
2018-02-05T06:53:26.913Z,1009.42
2018-02-05T06:54:26.928Z,1009.40
2018-02-05T06:55:26.938Z,1009.39
2018-02-05T06:56:26.948Z,1009.36
2018-02-05T06:57:26.959Z,1009.41
2018-02-05T06:58:26.975Z,1009.31
2018-02-05T06:59:26.990Z,1009.33
2018-02-05T07:00:27.001Z,1009.30
2018-02-05T07:01:27.013Z,1009.29
2018-02-05T07:02:27.024Z,1009.32
2018-02-05T07:03:27.038Z,1009.33
2018-02-05T07:04:27.052Z,1009.33
2018-02-05T07:05:27.063Z,1009.35
2018-02-05T07:06:27.073Z,1009.37
2018-02-05T07:07:27.090Z,1009.42
2018-02-05T07:08:27.117Z,1009.37
2018-02-05T07:09:27.208Z,1009.36
2018-02-05T07:10:27.127Z,1009.34
2018-02-05T07:11:27.138Z,1009.37
2018-02-05T07:12:27.153Z,1009.39
2018-02-05T07:13:27.169Z,1009.35
2018-02-05T07:14:27.178Z,1009.34
2018-02-05T07:15:27.191Z,1009.33
2018-02-05T07:16:27.206Z,1009.36
2018-02-05T07:17:27.218Z,1009.31
2018-02-05T07:18:27.228Z,1009.35
2018-02-05T07:19:27.243Z,1009.33
2018-02-05T07:20:27.258Z,1009.37
2018-02-05T07:21:27.266Z,1009.43
2018-02-05T07:22:27.280Z,1009.45
2018-02-05T07:23:27.291Z,1009.48
2018-02-05T07:24:27.305Z,1009.46
2018-02-05T07:25:27.314Z,1009.47
2018-02-05T07:26:27.328Z,1009.54
2018-02-05T07:27:27.338Z,1009.50
2018-02-05T07:28:27.354Z,1009.45
2018-02-05T07:29:27.366Z,1009.52
2018-02-05T07:30:27.378Z,1009.51
2018-02-05T07:31:27.395Z,1009.54
2018-02-05T07:32:27.405Z,1009.60
2018-02-05T07:33:27.417Z,1009.62
2018-02-05T07:34:27.428Z,1009.59
2018-02-05T07:35:27.442Z,1009.65
2018-02-05T07:36:27.454Z,1009.68
2018-02-05T07:37:27.466Z,1009.69
2018-02-05T07:38:27.483Z,1009.64
2018-02-05T07:39:27.493Z,1009.61
2018-02-05T07:40:27.506Z,1009.62
2018-02-05T07:41:27.522Z,1009.62
2018-02-05T07:42:27.533Z,1009.64
2018-02-05T07:43:27.540Z,1009.65
2018-02-05T07:44:27.557Z,1009.62
2018-02-05T07:45:27.575Z,1009.65
2018-02-05T07:46:27.580Z,1009.63
2018-02-05T07:47:27.589Z,1009.60
2018-02-05T07:48:27.607Z,1009.56
2018-02-05T07:49:27.633Z,1009.56
2018-02-05T07:50:27.632Z,1009.60
2018-02-05T07:51:27.644Z,1009.57
2018-02-05T07:52:27.659Z,1009.57
2018-02-05T07:53:27.667Z,1009.57
2018-02-05T07:54:27.681Z,1009.57
2018-02-05T07:55:27.696Z,1009.56
2018-02-05T07:56:27.709Z,1009.59
2018-02-05T07:57:27.723Z,1009.59
2018-02-05T07:58:27.753Z,1009.57
2018-02-05T07:59:27.745Z,1009.55
2018-02-05T08:00:27.757Z,1009.55
2018-02-05T08:01:27.770Z,1009.55
2018-02-05T08:02:27.782Z,1009.50
2018-02-05T08:03:27.796Z,1009.54
2018-02-05T08:04:27.810Z,1009.51
2018-02-05T08:05:27.819Z,1009.55
2018-02-05T08:06:27.834Z,1009.53
2018-02-05T08:07:27.843Z,1009.49
2018-02-05T08:08:27.860Z,1009.55
2018-02-05T08:09:27.866Z,1009.49
2018-02-05T08:10:27.893Z,1009.55
2018-02-05T08:11:27.896Z,1009.47
2018-02-05T08:12:27.908Z,1009.47
2018-02-05T08:13:27.919Z,1009.52
2018-02-05T08:14:27.934Z,1009.51
2018-02-05T08:15:27.945Z,1009.48
2018-02-05T08:16:27.979Z,1009.52
2018-02-05T08:17:27.970Z,1009.50
2018-02-05T08:18:27.979Z,1009.51
2018-02-05T08:19:27.996Z,1009.52
2018-02-05T08:20:28.008Z,1009.57
2018-02-05T08:21:28.025Z,1009.56
2018-02-05T08:22:28.033Z,1009.59
2018-02-05T08:23:28.046Z,1009.60
2018-02-05T08:24:28.057Z,1009.59
2018-02-05T08:25:28.068Z,1009.63
2018-02-05T08:26:28.088Z,1009.62
2018-02-05T08:27:28.091Z,1009.63
2018-02-05T08:28:28.104Z,1009.64
2018-02-05T08:29:28.117Z,1009.66
2018-02-05T08:30:28.132Z,1009.64
2018-02-05T08:31:28.145Z,1009.65
2018-02-05T08:32:28.172Z,1009.66
2018-02-05T08:33:28.184Z,1009.63
2018-02-05T08:34:28.182Z,1009.61
2018-02-05T08:35:28.209Z,1009.61
2018-02-05T08:36:28.210Z,1009.64
2018-02-05T08:37:28.217Z,1009.66
2018-02-05T08:38:28.231Z,1009.60
2018-02-05T08:39:28.243Z,1009.59
2018-02-05T08:40:28.257Z,1009.62
2018-02-05T08:41:28.278Z,1009.60
2018-02-05T08:42:28.291Z,1009.59
2018-02-05T08:43:28.298Z,1009.59
2018-02-05T08:44:28.309Z,1009.58
2018-02-05T08:45:28.322Z,1009.60
2018-02-05T08:46:28.349Z,1009.60
2018-02-05T08:47:28.344Z,1009.59
2018-02-05T08:48:28.359Z,1009.59
2018-02-05T08:49:28.372Z,1009.60
2018-02-05T08:50:28.384Z,1009.61
2018-02-05T08:51:28.397Z,1009.58
2018-02-05T08:52:28.409Z,1009.56
2018-02-05T08:53:28.421Z,1009.58
2018-02-05T08:54:28.434Z,1009.57
2018-02-05T08:55:28.447Z,1009.55
2018-02-05T08:56:28.459Z,1009.60
2018-02-05T08:57:28.469Z,1009.58
2018-02-05T08:58:28.482Z,1009.55
2018-02-05T08:59:28.498Z,1009.54
2018-02-05T09:00:28.531Z,1009.60
2018-02-05T09:01:28.569Z,1009.54
2018-02-05T09:02:28.538Z,1009.50
2018-02-05T09:03:28.544Z,1009.53
2018-02-05T09:04:28.596Z,1009.53
2018-02-05T09:05:28.573Z,1009.46
2018-02-05T09:06:28.585Z,1009.48
2018-02-05T09:07:28.596Z,1009.48
2018-02-05T09:08:28.609Z,1009.49
2018-02-05T09:09:28.625Z,1009.45
2018-02-05T09:10:28.632Z,1009.45
2018-02-05T09:11:28.644Z,1009.47
2018-02-05T09:12:28.656Z,1009.47
2018-02-05T09:13:28.665Z,1009.49
2018-02-05T09:14:28.681Z,1009.45
2018-02-05T09:15:28.692Z,1009.45
2018-02-05T09:16:28.710Z,1009.41
2018-02-05T09:17:28.718Z,1009.43
2018-02-05T09:18:28.728Z,1009.38
2018-02-05T09:19:28.746Z,1009.44
2018-02-05T09:20:28.759Z,1009.40
2018-02-05T09:21:28.766Z,1009.39
2018-02-05T09:22:28.778Z,1009.39
2018-02-05T09:23:28.793Z,1009.35
2018-02-05T09:24:28.804Z,1009.39
2018-02-05T09:25:28.817Z,1009.36
2018-02-05T09:26:28.827Z,1009.40
2018-02-05T09:27:28.842Z,1009.43
2018-02-05T09:28:28.854Z,1009.45
2018-02-05T09:29:28.867Z,1009.50
2018-02-05T09:30:28.880Z,1009.50
2018-02-05T09:31:28.888Z,1009.53
2018-02-05T09:32:28.903Z,1009.55
2018-02-05T09:33:28.918Z,1009.58
2018-02-05T09:34:28.930Z,1009.56
2018-02-05T09:35:28.933Z,1009.59
2018-02-05T09:36:28.950Z,1009.61
2018-02-05T09:37:29.042Z,1009.61
2018-02-05T09:38:28.982Z,1009.59
2018-02-05T09:39:28.990Z,1009.59
2018-02-05T09:40:29.003Z,1009.59
2018-02-05T09:41:29.013Z,1009.53
2018-02-05T09:42:29.030Z,1009.50
2018-02-05T09:43:29.040Z,1009.52
2018-02-05T09:44:29.052Z,1009.51
2018-02-05T09:45:29.069Z,1009.52
2018-02-05T09:46:29.074Z,1009.54
2018-02-05T09:47:29.090Z,1009.52
2018-02-05T09:48:29.097Z,1009.52
2018-02-05T09:49:29.115Z,1009.51
2018-02-05T09:50:29.121Z,1009.54
2018-02-05T09:51:29.139Z,1009.49
2018-02-05T09:52:29.155Z,1009.51
2018-02-05T09:53:29.156Z,1009.46
2018-02-05T09:54:29.177Z,1009.48
2018-02-05T09:55:29.194Z,1009.53
2018-02-05T09:56:29.202Z,1009.52
2018-02-05T09:57:29.224Z,1009.51
2018-02-05T09:58:29.222Z,1009.50
2018-02-05T09:59:29.239Z,1009.50
2018-02-05T10:00:29.261Z,1009.50
2018-02-05T10:01:29.263Z,1009.49
2018-02-05T10:02:29.306Z,1009.48
2018-02-05T10:03:29.287Z,1009.46
2018-02-05T10:04:29.301Z,1009.50
2018-02-05T10:05:29.314Z,1009.44
2018-02-05T10:06:29.326Z,1009.43
2018-02-05T10:07:29.347Z,1009.47
2018-02-05T10:08:29.354Z,1009.47
2018-02-05T10:09:29.361Z,1009.43
2018-02-05T10:10:29.376Z,1009.46
2018-02-05T10:11:29.387Z,1009.42
2018-02-05T10:12:29.400Z,1009.44
2018-02-05T10:13:29.416Z,1009.50
2018-02-05T10:14:29.427Z,1009.42
2018-02-05T10:15:29.439Z,1009.42
2018-02-05T10:16:29.480Z,1009.41
2018-02-05T10:17:29.464Z,1009.41
2018-02-05T10:18:29.482Z,1009.42
2018-02-05T10:19:29.491Z,1009.44
2018-02-05T10:20:29.511Z,1009.49
2018-02-05T10:21:29.506Z,1009.49
2018-02-05T10:22:29.542Z,1009.48
2018-02-05T10:23:29.543Z,1009.49
2018-02-05T10:24:29.571Z,1009.46
2018-02-05T10:25:29.562Z,1009.49
2018-02-05T10:26:29.587Z,1009.43
2018-02-05T10:27:29.624Z,1009.44
2018-02-05T10:28:29.605Z,1009.37
2018-02-05T10:29:29.620Z,1009.35
2018-02-05T10:30:29.630Z,1009.36
2018-02-05T10:31:29.641Z,1009.32
2018-02-05T10:32:29.659Z,1009.30
2018-02-05T10:33:29.666Z,1009.32
2018-02-05T10:34:29.678Z,1009.33
2018-02-05T10:35:29.696Z,1009.27
2018-02-05T10:36:29.707Z,1009.29
2018-02-05T10:37:29.736Z,1009.31
2018-02-05T10:38:29.751Z,1009.28
2018-02-05T10:39:29.763Z,1009.30
2018-02-05T10:40:29.765Z,1009.29
2018-02-05T10:41:29.769Z,1009.30
2018-02-05T10:42:29.797Z,1009.27
2018-02-05T10:43:29.796Z,1009.27
2018-02-05T10:44:29.811Z,1009.25
2018-02-05T10:45:29.821Z,1009.27
2018-02-05T10:46:29.837Z,1009.18
2018-02-05T10:47:29.850Z,1009.17
2018-02-05T10:48:29.863Z,1009.17
2018-02-05T10:49:29.890Z,1009.20
2018-02-05T10:50:29.891Z,1009.21
2018-02-05T10:51:29.898Z,1009.17
2018-02-05T10:52:29.922Z,1009.20
2018-02-05T10:53:29.930Z,1009.17
2018-02-05T10:54:29.936Z,1009.18
2018-02-05T10:55:29.952Z,1009.18
2018-02-05T10:56:29.964Z,1009.23
2018-02-05T10:57:29.969Z,1009.20
2018-02-05T10:58:29.990Z,1009.18
2018-02-05T10:59:30.009Z,1009.16
2018-02-05T11:00:30.013Z,1009.13
2018-02-05T11:01:30.034Z,1009.10
2018-02-05T11:02:30.043Z,1009.12
2018-02-05T11:03:30.056Z,1009.07
2018-02-05T11:04:30.069Z,1009.07
2018-02-05T11:05:30.080Z,1009.06
2018-02-05T11:06:30.095Z,1009.03
2018-02-05T11:07:30.108Z,1009.08
2018-02-05T11:08:30.125Z,1009.03
2018-02-05T11:09:30.135Z,1009.03
2018-02-05T11:10:30.150Z,1009.05
2018-02-05T11:11:30.161Z,1009.04
2018-02-05T11:12:30.182Z,1009.00
2018-02-05T11:13:30.199Z,1009.03
2018-02-05T11:14:30.235Z,1009.04
2018-02-05T11:15:30.222Z,1009.04
2018-02-05T11:16:30.231Z,1009.04
2018-02-05T11:17:30.246Z,1009.05
2018-02-05T11:18:30.257Z,1009.03
2018-02-05T11:19:30.275Z,1009.04
2018-02-05T11:20:30.284Z,1008.98
2018-02-05T11:21:30.296Z,1008.95
2018-02-05T11:22:30.308Z,1009.01
2018-02-05T11:23:30.322Z,1008.95
2018-02-05T11:24:30.347Z,1008.97
2018-02-05T11:25:30.351Z,1008.91
2018-02-05T11:26:30.369Z,1008.95
2018-02-05T11:27:30.375Z,1008.97
2018-02-05T11:28:30.387Z,1008.96
2018-02-05T11:29:30.406Z,1008.91
2018-02-05T11:30:30.421Z,1008.88
2018-02-05T11:31:30.434Z,1008.82
2018-02-05T11:32:30.450Z,1008.84
2018-02-05T11:33:30.457Z,1008.84
2018-02-05T11:34:30.475Z,1008.80
2018-02-05T11:35:30.486Z,1008.77
2018-02-05T11:36:30.498Z,1008.73
2018-02-05T11:37:30.513Z,1008.74
2018-02-05T11:38:30.525Z,1008.72
2018-02-05T11:39:30.552Z,1008.68
2018-02-05T11:40:30.564Z,1008.66
2018-02-05T11:41:30.567Z,1008.69
2018-02-05T11:42:30.683Z,1008.65
2018-02-05T11:43:30.591Z,1008.62
2018-02-05T11:44:30.605Z,1008.62
2018-02-05T11:45:30.613Z,1008.63
2018-02-05T11:46:30.630Z,1008.58
2018-02-05T11:47:30.649Z,1008.62
2018-02-05T11:48:30.661Z,1008.60
2018-02-05T11:49:30.679Z,1008.57
2018-02-05T11:50:30.687Z,1008.51
2018-02-05T11:51:30.701Z,1008.51
2018-02-05T11:52:30.710Z,1008.52
2018-02-05T11:53:30.732Z,1008.47
2018-02-05T11:54:30.739Z,1008.44
2018-02-05T11:55:30.755Z,1008.48
2018-02-05T11:56:30.771Z,1008.48
2018-02-05T11:57:30.785Z,1008.49
2018-02-05T11:58:30.801Z,1008.52
2018-02-05T11:59:30.809Z,1008.48
2018-02-05T12:00:30.823Z,1008.49
2018-02-05T12:01:30.837Z,1008.51
2018-02-05T12:02:30.853Z,1008.50
2018-02-05T12:03:30.866Z,1008.49
2018-02-05T12:04:30.887Z,1008.51
2018-02-05T12:05:30.903Z,1008.48